sensor_id;sensor_type;location;lat;lon;timestamp;pressure;altitude;pressure_sealevel;temperature;humidity
61337;BME280;47212;41.326;2.104;2023-08-07T00:04:58;101649.66;;;24.60;61.79
61337;BME280;47212;41.326;2.104;2023-08-07T00:10:10;101643.28;;;24.60;61.49
61337;BME280;47212;41.326;2.104;2023-08-07T00:15:19;101638.72;;;24.55;61.48
61337;BME280;47212;41.326;2.104;2023-08-07T00:20:28;101639.06;;;24.54;60.64
61337;BME280;47212;41.326;2.104;2023-08-07T00:25:39;101641.84;;;24.54;60.17
61337;BME280;47212;41.326;2.104;2023-08-07T00:30:49;101631.91;;;24.44;58.81
61337;BME280;47212;41.326;2.104;2023-08-07T00:36:02;101637.31;;;24.40;58.69
61337;BME280;47212;41.326;2.104;2023-08-07T00:41:06;101640.63;;;24.34;57.92
61337;BME280;47212;41.326;2.104;2023-08-07T00:46:11;101638.19;;;24.32;57.79
61337;BME280;47212;41.326;2.104;2023-08-07T00:51:24;101631.31;;;24.30;56.36
61337;BME280;47212;41.326;2.104;2023-08-07T00:56:30;101625.06;;;24.33;57.37
61337;BME280;47212;41.326;2.104;2023-08-07T01:01:36;101615.44;;;24.30;57.17
61337;BME280;47212;41.326;2.104;2023-08-07T01:06:44;101626.91;;;24.29;56.76
61337;BME280;47212;41.326;2.104;2023-08-07T01:11:50;101615.44;;;24.30;56.17
61337;BME280;47212;41.326;2.104;2023-08-07T01:21:26;101610.50;;;24.27;56.07
61337;BME280;47212;41.326;2.104;2023-08-07T01:26:37;101620.81;;;24.27;56.95
61337;BME280;47212;41.326;2.104;2023-08-07T01:31:44;101626.38;;;24.27;55.87
61337;BME280;47212;41.326;2.104;2023-08-07T01:36:56;101623.59;;;24.27;56.59
61337;BME280;47212;41.326;2.104;2023-08-07T01:42:04;101613.94;;;24.24;56.23
61337;BME280;47212;41.326;2.104;2023-08-07T01:47:12;101615.88;;;24.24;56.05
61337;BME280;47212;41.326;2.104;2023-08-07T01:52:15;101628.66;;;24.25;56.10
61337;BME280;47212;41.326;2.104;2023-08-07T01:57:25;101629.47;;;24.25;55.15
61337;BME280;47212;41.326;2.104;2023-08-07T02:02:29;101626.22;;;24.32;55.58
61337;BME280;47212;41.326;2.104;2023-08-07T02:07:34;101621.81;;;24.31;56.01
61337;BME280;47212;41.326;2.104;2023-08-07T02:12:40;101621.16;;;24.34;55.82
61337;BME280;47212;41.326;2.104;2023-08-07T02:17:48;101628.34;;;24.35;56.32
61337;BME280;47212;41.326;2.104;2023-08-07T02:22:54;101641.78;;;24.33;56.67
61337;BME280;47212;41.326;2.104;2023-08-07T02:28:02;101655.34;;;24.34;56.37
61337;BME280;47212;41.326;2.104;2023-08-07T02:33:14;101665.00;;;24.37;55.84
61337;BME280;47212;41.326;2.104;2023-08-07T02:38:28;101663.50;;;24.39;55.98
61337;BME280;47212;41.326;2.104;2023-08-07T02:43:40;101661.72;;;24.35;56.44
61337;BME280;47212;41.326;2.104;2023-08-07T02:48:44;101661.44;;;24.28;56.60
61337;BME280;47212;41.326;2.104;2023-08-07T02:53:56;101661.44;;;24.28;56.66
61337;BME280;47212;41.326;2.104;2023-08-07T02:58:58;101667.81;;;24.28;56.67
61337;BME280;47212;41.326;2.104;2023-08-07T03:04:05;101668.41;;;24.25;57.07
61337;BME280;47212;41.326;2.104;2023-08-07T03:09:08;101659.44;;;24.20;56.65
61337;BME280;47212;41.326;2.104;2023-08-07T03:14:14;101657.00;;;24.18;55.79
61337;BME280;47212;41.326;2.104;2023-08-07T03:19:19;101647.84;;;24.09;56.05
61337;BME280;47212;41.326;2.104;2023-08-07T03:24:24;101654.22;;;24.09;56.00
61337;BME280;47212;41.326;2.104;2023-08-07T03:29:33;101666.19;;;24.10;55.85
61337;BME280;47212;41.326;2.104;2023-08-07T03:34:47;101659.78;;;24.09;55.89
61337;BME280;47212;41.326;2.104;2023-08-07T03:39:56;101664.69;;;24.12;55.89
61337;BME280;47212;41.326;2.104;2023-08-07T03:45:06;101681.72;;;24.11;55.63
61337;BME280;47212;41.326;2.104;2023-08-07T03:50:08;101668.13;;;24.09;55.66
61337;BME280;47212;41.326;2.104;2023-08-07T03:55:16;101668.13;;;24.09;55.86
61337;BME280;47212;41.326;2.104;2023-08-07T04:05:59;101679.09;;;24.14;55.70
61337;BME280;47212;41.326;2.104;2023-08-07T04:11:09;101690.06;;;24.11;55.49
61337;BME280;47212;41.326;2.104;2023-08-07T04:16:16;101692.19;;;24.05;55.84
61337;BME280;47212;41.326;2.104;2023-08-07T04:21:19;101691.38;;;24.05;55.36
61337;BME280;47212;41.326;2.104;2023-08-07T04:26:23;101700.53;;;24.05;55.64
61337;BME280;47212;41.326;2.104;2023-08-07T04:31:33;101693.84;;;24.06;55.57
61337;BME280;47212;41.326;2.104;2023-08-07T04:36:52;101685.81;;;24.05;55.84
61337;BME280;47212;41.326;2.104;2023-08-07T04:42:03;101688.13;;;24.03;55.79
61337;BME280;47212;41.326;2.104;2023-08-07T04:47:09;101702.34;;;24.01;55.88
61337;BME280;47212;41.326;2.104;2023-08-07T04:52:16;101703.00;;;23.98;55.72
61337;BME280;47212;41.326;2.104;2023-08-07T04:57:34;101703.69;;;23.95;55.66
61337;BME280;47212;41.326;2.104;2023-08-07T05:02:41;101699.91;;;23.91;55.40
61337;BME280;47212;41.326;2.104;2023-08-07T05:07:46;101703.34;;;23.88;55.91
61337;BME280;47212;41.326;2.104;2023-08-07T05:12:52;101711.22;;;23.86;56.13
61337;BME280;47212;41.326;2.104;2023-08-07T05:18:02;101706.97;;;23.80;56.66
61337;BME280;47212;41.326;2.104;2023-08-07T05:23:07;101705.00;;;23.72;57.26
61337;BME280;47212;41.326;2.104;2023-08-07T05:28:16;101723.97;;;23.70;57.67
61337;BME280;47212;41.326;2.104;2023-08-07T05:33:19;101722.34;;;23.69;57.87
61337;BME280;47212;41.326;2.104;2023-08-07T05:38:22;101719.41;;;23.74;57.83
61337;BME280;47212;41.326;2.104;2023-08-07T05:43:28;101714.00;;;23.86;57.37
61337;BME280;47212;41.326;2.104;2023-08-07T05:48:34;101723.63;;;23.97;56.61
61337;BME280;47212;41.326;2.104;2023-08-07T05:53:41;101728.34;;;24.05;56.58
61337;BME280;47212;41.326;2.104;2023-08-07T05:58:55;101736.34;;;24.15;56.78
61337;BME280;47212;41.326;2.104;2023-08-07T06:03:58;101743.56;;;24.17;55.77
61337;BME280;47212;41.326;2.104;2023-08-07T06:09:01;101740.28;;;24.14;55.67
61337;BME280;47212;41.326;2.104;2023-08-07T06:14:09;101744.38;;;24.17;55.68
61337;BME280;47212;41.326;2.104;2023-08-07T06:19:15;101750.75;;;24.18;55.26
61337;BME280;47212;41.326;2.104;2023-08-07T06:24:34;101746.34;;;24.17;55.56
61337;BME280;47212;41.326;2.104;2023-08-07T06:29:42;101759.09;;;24.18;55.02
61337;BME280;47212;41.326;2.104;2023-08-07T06:34:48;101759.28;;;24.12;55.23
61337;BME280;47212;41.326;2.104;2023-08-07T06:40:01;101753.03;;;24.15;55.12
61337;BME280;47212;41.326;2.104;2023-08-07T06:45:07;101760.41;;;24.11;54.07
61337;BME280;47212;41.326;2.104;2023-08-07T06:50:14;101765.50;;;24.09;54.85
61337;BME280;47212;41.326;2.104;2023-08-07T06:55:16;101773.34;;;24.07;54.77
61337;BME280;47212;41.326;2.104;2023-08-07T07:00:31;101782.69;;;24.03;54.62
61337;BME280;47212;41.326;2.104;2023-08-07T07:05:49;101783.16;;;23.96;54.82
61337;BME280;47212;41.326;2.104;2023-08-07T07:10:52;101794.44;;;24.17;54.91
61337;BME280;47212;41.326;2.104;2023-08-07T07:15:55;101791.53;;;24.39;54.11
61337;BME280;47212;41.326;2.104;2023-08-07T07:21:05;101795.28;;;24.35;54.47
61337;BME280;47212;41.326;2.104;2023-08-07T07:26:09;101794.75;;;24.24;54.53
61337;BME280;47212;41.326;2.104;2023-08-07T07:31:14;101785.50;;;24.29;54.74
61337;BME280;47212;41.326;2.104;2023-08-07T07:36:23;101799.00;;;24.56;53.65
61337;BME280;47212;41.326;2.104;2023-08-07T07:41:43;101797.81;;;24.74;53.94
61337;BME280;47212;41.326;2.104;2023-08-07T07:47:02;101798.75;;;24.87;52.70
61337;BME280;47212;41.326;2.104;2023-08-07T07:52:14;101800.69;;;24.95;52.49
61337;BME280;47212;41.326;2.104;2023-08-07T07:57:18;101800.81;;;25.07;52.54
61337;BME280;47212;41.326;2.104;2023-08-07T08:02:36;101801.00;;;24.94;53.00
61337;BME280;47212;41.326;2.104;2023-08-07T08:07:39;101807.72;;;25.01;52.30
61337;BME280;47212;41.326;2.104;2023-08-07T08:12:44;101815.75;;;25.03;52.61
61337;BME280;47212;41.326;2.104;2023-08-07T08:17:49;101807.53;;;25.15;52.18
61337;BME280;47212;41.326;2.104;2023-08-07T08:22:57;101811.44;;;25.14;52.42
61337;BME280;47212;41.326;2.104;2023-08-07T08:28:00;101816.09;;;25.01;52.64
61337;BME280;47212;41.326;2.104;2023-08-07T08:33:07;101806.91;;;24.92;52.66
61337;BME280;47212;41.326;2.104;2023-08-07T08:38:19;101805.56;;;25.07;53.03
61337;BME280;47212;41.326;2.104;2023-08-07T08:43:35;101816.75;;;25.36;52.15
61337;BME280;47212;41.326;2.104;2023-08-07T08:48:51;101817.19;;;25.77;51.13
61337;BME280;47212;41.326;2.104;2023-08-07T08:53:57;101827.78;;;25.83;51.19
61337;BME280;47212;41.326;2.104;2023-08-07T08:59:04;101825.88;;;25.75;51.80
61337;BME280;47212;41.326;2.104;2023-08-07T09:04:16;101831.25;;;25.80;51.40
61337;BME280;47212;41.326;2.104;2023-08-07T09:09:20;101840.09;;;25.82;51.46
61337;BME280;47212;41.326;2.104;2023-08-07T09:14:33;101833.19;;;25.59;51.20
61337;BME280;47212;41.326;2.104;2023-08-07T09:19:40;101830.97;;;25.73;51.45
61337;BME280;47212;41.326;2.104;2023-08-07T09:24:49;101845.59;;;25.70;51.42
61337;BME280;47212;41.326;2.104;2023-08-07T09:29:56;101846.41;;;25.70;51.85
61337;BME280;47212;41.326;2.104;2023-08-07T09:35:03;101836.31;;;25.57;51.78
61337;BME280;47212;41.326;2.104;2023-08-07T09:40:11;101833.03;;;25.85;51.97
61337;BME280;47212;41.326;2.104;2023-08-07T09:45:27;101839.78;;;26.05;51.17
61337;BME280;47212;41.326;2.104;2023-08-07T09:50:32;101838.00;;;26.21;50.99
61337;BME280;47212;41.326;2.104;2023-08-07T09:55:40;101838.41;;;26.31;50.74
61337;BME280;47212;41.326;2.104;2023-08-07T10:00:50;101829.44;;;26.05;51.15
61337;BME280;47212;41.326;2.104;2023-08-07T10:05:55;101836.88;;;26.01;51.60
61337;BME280;47212;41.326;2.104;2023-08-07T10:10:58;101837.75;;;26.14;51.26
61337;BME280;47212;41.326;2.104;2023-08-07T10:16:01;101836.38;;;26.20;51.19
61337;BME280;47212;41.326;2.104;2023-08-07T10:21:05;101838.75;;;26.30;50.72
61337;BME280;47212;41.326;2.104;2023-08-07T10:26:11;101831.81;;;26.15;51.08
61337;BME280;47212;41.326;2.104;2023-08-07T10:31:18;101830.41;;;26.09;50.93
61337;BME280;47212;41.326;2.104;2023-08-07T10:36:22;101839.84;;;26.17;51.35
61337;BME280;47212;41.326;2.104;2023-08-07T10:41:41;101826.78;;;26.09;51.90
61337;BME280;47212;41.326;2.104;2023-08-07T10:46:57;101823.44;;;26.15;51.81
61337;BME280;47212;41.326;2.104;2023-08-07T10:52:08;101821.25;;;26.21;49.64
61337;BME280;47212;41.326;2.104;2023-08-07T10:57:14;101821.00;;;26.14;49.83
61337;BME280;47212;41.326;2.104;2023-08-07T11:02:37;101813.56;;;26.18;48.01
61337;BME280;47212;41.326;2.104;2023-08-07T11:08:02;101812.00;;;26.29;47.46
61337;BME280;47212;41.326;2.104;2023-08-07T11:13:04;101815.00;;;26.24;48.79
61337;BME280;47212;41.326;2.104;2023-08-07T11:18:07;101815.94;;;26.49;48.26
61337;BME280;47212;41.326;2.104;2023-08-07T11:23:13;101813.53;;;26.72;48.50
61337;BME280;47212;41.326;2.104;2023-08-07T11:28:22;101808.06;;;26.75;48.21
61337;BME280;47212;41.326;2.104;2023-08-07T11:33:29;101809.91;;;26.59;48.55
61337;BME280;47212;41.326;2.104;2023-08-07T11:38:39;101807.22;;;26.50;50.01
61337;BME280;47212;41.326;2.104;2023-08-07T11:43:49;101787.19;;;26.48;50.58
61337;BME280;47212;41.326;2.104;2023-08-07T11:48:52;101789.13;;;26.36;50.87
61337;BME280;47212;41.326;2.104;2023-08-07T11:54:01;101785.66;;;26.18;50.94
61337;BME280;47212;41.326;2.104;2023-08-07T11:59:07;101787.25;;;26.07;51.61
61337;BME280;47212;41.326;2.104;2023-08-07T12:04:17;101774.16;;;25.98;52.15
61337;BME280;47212;41.326;2.104;2023-08-07T12:09:21;101769.13;;;26.13;51.83
61337;BME280;47212;41.326;2.104;2023-08-07T12:14:30;101767.44;;;25.99;52.02
61337;BME280;47212;41.326;2.104;2023-08-07T12:19:42;101759.47;;;25.89;52.88
61337;BME280;47212;41.326;2.104;2023-08-07T12:24:55;101760.78;;;25.92;52.79
61337;BME280;47212;41.326;2.104;2023-08-07T12:30:01;101760.84;;;26.04;52.81
61337;BME280;47212;41.326;2.104;2023-08-07T12:35:18;101765.31;;;25.96;53.19
61337;BME280;47212;41.326;2.104;2023-08-07T12:40:22;101757.97;;;25.92;53.16
61337;BME280;47212;41.326;2.104;2023-08-07T12:45:28;101758.31;;;25.90;53.21
61337;BME280;47212;41.326;2.104;2023-08-07T12:50:50;101752.53;;;25.95;53.24
61337;BME280;47212;41.326;2.104;2023-08-07T12:56:20;101756.22;;;25.87;53.32
61337;BME280;47212;41.326;2.104;2023-08-07T13:01:23;101741.81;;;25.85;53.80
61337;BME280;47212;41.326;2.104;2023-08-07T13:06:29;101746.91;;;25.83;54.00
61337;BME280;47212;41.326;2.104;2023-08-07T13:11:36;101739.44;;;25.75;54.18
61337;BME280;47212;41.326;2.104;2023-08-07T13:16:44;101741.53;;;25.78;54.22
61337;BME280;47212;41.326;2.104;2023-08-07T13:22:03;101735.53;;;25.88;54.01
61337;BME280;47212;41.326;2.104;2023-08-07T13:27:09;101738.88;;;25.82;53.98
61337;BME280;47212;41.326;2.104;2023-08-07T13:32:14;101727.72;;;25.82;54.55
61337;BME280;47212;41.326;2.104;2023-08-07T13:37:26;101736.34;;;25.89;54.05
61337;BME280;47212;41.326;2.104;2023-08-07T13:42:32;101734.03;;;25.91;54.03
61337;BME280;47212;41.326;2.104;2023-08-07T13:47:35;101722.78;;;25.99;54.09
61337;BME280;47212;41.326;2.104;2023-08-07T13:52:43;101730.66;;;25.85;54.38
61337;BME280;47212;41.326;2.104;2023-08-07T13:58:05;101709.69;;;25.79;54.73
61337;BME280;47212;41.326;2.104;2023-08-07T14:03:12;101712.41;;;25.88;54.57
61337;BME280;47212;41.326;2.104;2023-08-07T14:08:16;101722.56;;;25.71;54.72
61337;BME280;47212;41.326;2.104;2023-08-07T14:13:20;101714.06;;;25.68;55.12
61337;BME280;47212;41.326;2.104;2023-08-07T14:18:24;101715.50;;;25.74;55.49
61337;BME280;47212;41.326;2.104;2023-08-07T14:23:27;101711.19;;;25.77;55.02
61337;BME280;47212;41.326;2.104;2023-08-07T14:28:34;101718.81;;;25.88;55.10
61337;BME280;47212;41.326;2.104;2023-08-07T14:33:37;101720.97;;;26.03;54.61
61337;BME280;47212;41.326;2.104;2023-08-07T14:38:40;101711.00;;;26.15;54.65
61337;BME280;47212;41.326;2.104;2023-08-07T14:43:44;101708.47;;;26.22;54.52
61337;BME280;47212;41.326;2.104;2023-08-07T14:48:49;101708.53;;;26.34;54.16
61337;BME280;47212;41.326;2.104;2023-08-07T14:53:51;101702.97;;;26.46;54.11
61337;BME280;47212;41.326;2.104;2023-08-07T14:58:54;101705.19;;;26.53;53.77
61337;BME280;47212;41.326;2.104;2023-08-07T15:03:57;101698.31;;;26.50;53.66
61337;BME280;47212;41.326;2.104;2023-08-07T15:09:02;101701.81;;;26.47;54.11
61337;BME280;47212;41.326;2.104;2023-08-07T15:14:05;101705.50;;;26.39;54.57
61337;BME280;47212;41.326;2.104;2023-08-07T15:19:10;101701.97;;;26.30;54.63
61337;BME280;47212;41.326;2.104;2023-08-07T15:24:15;101692.19;;;26.24;55.21
61337;BME280;47212;41.326;2.104;2023-08-07T15:29:22;101702.94;;;26.34;54.97
61337;BME280;47212;41.326;2.104;2023-08-07T15:34:35;101678.00;;;26.17;55.37
61337;BME280;47212;41.326;2.104;2023-08-07T15:39:43;101687.91;;;25.93;55.55
61337;BME280;47212;41.326;2.104;2023-08-07T15:44:51;101690.13;;;25.67;56.51
61337;BME280;47212;41.326;2.104;2023-08-07T15:50:06;101676.44;;;25.53;57.12
61337;BME280;47212;41.326;2.104;2023-08-07T15:55:11;101680.47;;;25.44;57.69
61337;BME280;47212;41.326;2.104;2023-08-07T16:00:17;101685.50;;;25.50;57.35
61337;BME280;47212;41.326;2.104;2023-08-07T16:05:21;101673.88;;;25.48;57.54
61337;BME280;47212;41.326;2.104;2023-08-07T16:15:54;101669.63;;;25.63;57.58
61337;BME280;47212;41.326;2.104;2023-08-07T16:21:23;101660.63;;;25.66;57.72
61337;BME280;47212;41.326;2.104;2023-08-07T16:26:26;101677.13;;;25.50;58.50
61337;BME280;47212;41.326;2.104;2023-08-07T16:41:29;101648.50;;;25.41;59.52
61337;BME280;47212;41.326;2.104;2023-08-07T16:46:37;101637.88;;;25.55;59.20
61337;BME280;47212;41.326;2.104;2023-08-07T16:51:45;101640.59;;;25.64;58.86
61337;BME280;47212;41.326;2.104;2023-08-07T16:57:01;101639.38;;;25.74;58.67
61337;BME280;47212;41.326;2.104;2023-08-07T17:02:11;101640.31;;;25.78;58.88
61337;BME280;47212;41.326;2.104;2023-08-07T17:07:17;101625.34;;;25.82;58.74
61337;BME280;47212;41.326;2.104;2023-08-07T17:12:23;101621.75;;;25.82;58.92
61337;BME280;47212;41.326;2.104;2023-08-07T17:17:31;101629.06;;;25.86;58.71
61337;BME280;47212;41.326;2.104;2023-08-07T17:22:38;101627.53;;;25.77;59.29
61337;BME280;47212;41.326;2.104;2023-08-07T17:27:45;101636.13;;;25.71;59.29
61337;BME280;47212;41.326;2.104;2023-08-07T17:32:51;101631.06;;;25.65;59.51
61337;BME280;47212;41.326;2.104;2023-08-07T17:38:00;101635.66;;;25.69;59.89
61337;BME280;47212;41.326;2.104;2023-08-07T17:43:04;101628.97;;;25.62;59.79
61337;BME280;47212;41.326;2.104;2023-08-07T17:48:12;101626.75;;;25.55;59.87
61337;BME280;47212;41.326;2.104;2023-08-07T17:53:20;101634.50;;;25.50;60.22
61337;BME280;47212;41.326;2.104;2023-08-07T17:58:25;101640.75;;;25.47;60.64
61337;BME280;47212;41.326;2.104;2023-08-07T18:03:29;101640.50;;;25.39;60.66
61337;BME280;47212;41.326;2.104;2023-08-07T18:08:35;101640.22;;;25.32;60.94
61337;BME280;47212;41.326;2.104;2023-08-07T18:13:51;101639.13;;;25.25;61.11
61337;BME280;47212;41.326;2.104;2023-08-07T18:19:12;101639.69;;;25.18;62.07
61337;BME280;47212;41.326;2.104;2023-08-07T18:24:22;101640.66;;;25.14;61.76
61337;BME280;47212;41.326;2.104;2023-08-07T18:29:27;101639.38;;;25.11;62.19
61337;BME280;47212;41.326;2.104;2023-08-07T18:34:37;101648.88;;;25.10;62.52
61337;BME280;47212;41.326;2.104;2023-08-07T18:40:05;101647.41;;;25.13;62.05
61337;BME280;47212;41.326;2.104;2023-08-07T18:45:13;101636.13;;;25.09;62.82
61337;BME280;47212;41.326;2.104;2023-08-07T18:50:20;101642.22;;;25.02;63.11
61337;BME280;47212;41.326;2.104;2023-08-07T18:55:26;101651.88;;;25.05;63.31
61337;BME280;47212;41.326;2.104;2023-08-07T19:00:35;101645.34;;;25.01;63.05
61337;BME280;47212;41.326;2.104;2023-08-07T19:05:42;101656.84;;;24.99;63.43
61337;BME280;47212;41.326;2.104;2023-08-07T19:10:48;101655.50;;;24.97;63.53
61337;BME280;47212;41.326;2.104;2023-08-07T19:15:59;101654.56;;;24.93;63.44
61337;BME280;47212;41.326;2.104;2023-08-07T19:21:09;101657.69;;;24.91;63.67
61337;BME280;47212;41.326;2.104;2023-08-07T19:26:17;101669.63;;;24.92;64.46
61337;BME280;47212;41.326;2.104;2023-08-07T19:31:20;101673.56;;;24.91;64.20
61337;BME280;47212;41.326;2.104;2023-08-07T19:36:34;101678.31;;;24.90;65.07
61337;BME280;47212;41.326;2.104;2023-08-07T19:41:43;101682.13;;;24.86;64.63
61337;BME280;47212;41.326;2.104;2023-08-07T19:46:51;101671.31;;;24.84;65.23
61337;BME280;47212;41.326;2.104;2023-08-07T19:51:59;101683.28;;;24.85;65.52
61337;BME280;47212;41.326;2.104;2023-08-07T19:57:07;101682.78;;;24.83;65.36
61337;BME280;47212;41.326;2.104;2023-08-07T20:02:18;101690.81;;;24.84;66.02
61337;BME280;47212;41.326;2.104;2023-08-07T20:07:25;101699.63;;;24.86;66.04
61337;BME280;47212;41.326;2.104;2023-08-07T20:12:28;101687.00;;;24.89;65.62
61337;BME280;47212;41.326;2.104;2023-08-07T20:17:37;101688.31;;;24.91;65.96
61337;BME280;47212;41.326;2.104;2023-08-07T20:22:45;101686.34;;;24.92;66.35
61337;BME280;47212;41.326;2.104;2023-08-07T20:28:00;101684.84;;;24.94;66.08
61337;BME280;47212;41.326;2.104;2023-08-07T20:33:10;101689.91;;;25.01;66.57
61337;BME280;47212;41.326;2.104;2023-08-07T20:38:17;101690.88;;;25.05;66.23
61337;BME280;47212;41.326;2.104;2023-08-07T20:43:20;101693.31;;;25.06;66.43
61337;BME280;47212;41.326;2.104;2023-08-07T20:48:31;101689.25;;;25.04;66.66
61337;BME280;47212;41.326;2.104;2023-08-07T20:53:41;101681.56;;;25.01;67.23
61337;BME280;47212;41.326;2.104;2023-08-07T20:58:47;101673.06;;;24.97;67.36
61337;BME280;47212;41.326;2.104;2023-08-07T21:04:19;101684.22;;;24.97;67.35
61337;BME280;47212;41.326;2.104;2023-08-07T21:09:26;101684.03;;;24.94;67.81
61337;BME280;47212;41.326;2.104;2023-08-07T21:14:29;101682.41;;;24.93;67.56
61337;BME280;47212;41.326;2.104;2023-08-07T21:19:36;101679.13;;;24.91;67.88
61337;BME280;47212;41.326;2.104;2023-08-07T21:24:49;101681.44;;;24.89;68.35
61337;BME280;47212;41.326;2.104;2023-08-07T21:29:58;101675.88;;;24.89;68.52
61337;BME280;47212;41.326;2.104;2023-08-07T21:35:03;101666.38;;;24.90;68.16
61337;BME280;47212;41.326;2.104;2023-08-07T21:40:11;101681.59;;;24.92;68.76
61337;BME280;47212;41.326;2.104;2023-08-07T21:45:23;101676.00;;;24.92;68.10
61337;BME280;47212;41.326;2.104;2023-08-07T21:50:31;101678.47;;;24.94;68.62
61337;BME280;47212;41.326;2.104;2023-08-07T21:55:38;101666.16;;;24.95;68.43
61337;BME280;47212;41.326;2.104;2023-08-07T22:00:46;101662.22;;;24.96;68.33
61337;BME280;47212;41.326;2.104;2023-08-07T22:05:53;101672.22;;;24.97;68.09
61337;BME280;47212;41.326;2.104;2023-08-07T22:10:58;101663.56;;;24.98;68.34
61337;BME280;47212;41.326;2.104;2023-08-07T22:16:11;101666.34;;;24.98;68.50
61337;BME280;47212;41.326;2.104;2023-08-07T22:21:18;101668.13;;;24.94;69.11
61337;BME280;47212;41.326;2.104;2023-08-07T22:26:32;101664.53;;;24.94;69.23
61337;BME280;47212;41.326;2.104;2023-08-07T22:31:34;101665.34;;;24.94;69.21
61337;BME280;47212;41.326;2.104;2023-08-07T22:36:40;101663.56;;;24.98;69.20
61337;BME280;47212;41.326;2.104;2023-08-07T22:41:44;101661.59;;;24.99;69.09
61337;BME280;47212;41.326;2.104;2023-08-07T22:46:52;101657.31;;;25.01;69.44
61337;BME280;47212;41.326;2.104;2023-08-07T22:52:04;101654.66;;;25.05;68.89
61337;BME280;47212;41.326;2.104;2023-08-07T22:57:13;101655.81;;;25.04;69.60
61337;BME280;47212;41.326;2.104;2023-08-07T23:02:17;101644.34;;;25.05;69.12
61337;BME280;47212;41.326;2.104;2023-08-07T23:07:30;101646.31;;;25.05;69.51
61337;BME280;47212;41.326;2.104;2023-08-07T23:12:32;101647.25;;;25.09;69.30
61337;BME280;47212;41.326;2.104;2023-08-07T23:17:37;101655.41;;;25.14;69.06
61337;BME280;47212;41.326;2.104;2023-08-07T23:22:44;101651.81;;;25.14;69.23
61337;BME280;47212;41.326;2.104;2023-08-07T23:27:52;101651.00;;;25.13;68.99
61337;BME280;47212;41.326;2.104;2023-08-07T23:33:01;101657.25;;;25.10;69.06
61337;BME280;47212;41.326;2.104;2023-08-07T23:38:11;101652.84;;;25.09;68.66
61337;BME280;47212;41.326;2.104;2023-08-07T23:43:19;101660.03;;;25.10;68.79
61337;BME280;47212;41.326;2.104;2023-08-07T23:48:22;101652.16;;;25.12;68.92
61337;BME280;47212;41.326;2.104;2023-08-07T23:53:27;101645.13;;;25.15;69.10
61337;BME280;47212;41.326;2.104;2023-08-07T23:58:37;101647.91;;;25.15;69.19
